createdAt,value
2022-09-02T00:02:18.650Z,18.70
2022-09-02T00:04:47.873Z,18.80
2022-09-02T00:07:16.109Z,18.80
2022-09-02T00:09:44.032Z,18.80
2022-09-02T00:12:12.806Z,18.80
2022-09-02T00:14:41.050Z,18.90
2022-09-02T00:17:09.047Z,18.80
2022-09-02T00:19:38.734Z,18.80
2022-09-02T00:22:07.014Z,18.90
2022-09-02T00:24:35.705Z,18.80
2022-09-02T00:27:04.318Z,18.90
2022-09-02T00:29:32.485Z,18.80
2022-09-02T00:32:01.186Z,18.80
2022-09-02T00:34:29.307Z,18.70
2022-09-02T00:36:57.294Z,18.70
2022-09-02T00:39:26.581Z,18.70
2022-09-02T00:41:54.616Z,18.70
2022-09-02T00:44:22.834Z,18.70
2022-09-02T00:46:51.711Z,18.70
2022-09-02T00:49:27.792Z,18.60
2022-09-02T00:52:04.887Z,18.60
2022-09-02T00:54:35.107Z,18.60
2022-09-02T00:57:04.470Z,18.60
2022-09-02T00:59:51.255Z,18.60
2022-09-02T01:02:19.610Z,18.50
2022-09-02T01:04:47.798Z,18.50
2022-09-02T01:07:16.500Z,18.40
2022-09-02T01:09:44.509Z,18.40
2022-09-02T01:12:15.418Z,18.30
2022-09-02T01:14:44.447Z,18.30
2022-09-02T01:17:12.789Z,18.40
2022-09-02T01:19:46.353Z,18.40
2022-09-02T01:22:18.670Z,18.40
2022-09-02T01:24:47.249Z,18.30
2022-09-02T01:27:16.830Z,18.30
2022-09-02T01:29:46.101Z,18.30
2022-09-02T01:32:14.505Z,18.30
2022-09-02T01:34:42.604Z,18.30
2022-09-02T01:37:10.725Z,18.30
2022-09-02T01:39:39.159Z,18.30
2022-09-02T01:42:08.081Z,18.20
2022-09-02T01:44:39.282Z,18.20
2022-09-02T01:47:07.468Z,18.20
2022-09-02T01:49:36.045Z,18.20
2022-09-02T01:52:05.039Z,18.10
2022-09-02T01:54:34.098Z,18.10
2022-09-02T01:57:02.208Z,18.20
2022-09-02T01:59:30.768Z,18.10
2022-09-02T02:02:00.639Z,18.10
2022-09-02T02:04:29.072Z,18.20
2022-09-02T02:06:59.721Z,18.10
2022-09-02T02:09:30.749Z,18.20
2022-09-02T02:11:59.146Z,18.10
2022-09-02T02:14:30.485Z,18.10
2022-09-02T02:16:58.570Z,18.10
2022-09-02T02:19:26.632Z,18.10
2022-09-02T02:21:54.661Z,18.10
2022-09-02T02:24:22.936Z,18.10
2022-09-02T02:26:51.237Z,18.10
2022-09-02T02:29:21.471Z,18.10
2022-09-02T02:31:50.105Z,18.10
2022-09-02T02:34:18.898Z,18.10
2022-09-02T02:36:47.878Z,18.10
2022-09-02T02:39:15.945Z,18.10
2022-09-02T02:41:45.014Z,18.10
2022-09-02T02:44:14.772Z,18.10
2022-09-02T02:46:43.119Z,18.00
2022-09-02T02:49:11.611Z,18.00
2022-09-02T02:51:39.776Z,18.00
2022-09-02T02:54:08.189Z,18.00
2022-09-02T02:56:39.450Z,18.00
2022-09-02T02:59:07.648Z,18.00
2022-09-02T03:01:35.990Z,18.00
2022-09-02T03:04:05.727Z,18.00
2022-09-02T03:06:36.159Z,18.00
2022-09-02T03:09:07.293Z,18.00
2022-09-02T03:11:41.321Z,18.00
2022-09-02T03:14:09.328Z,18.00
2022-09-02T03:16:37.375Z,18.00
2022-09-02T03:19:06.726Z,17.90
2022-09-02T03:21:38.700Z,17.90
2022-09-02T03:24:09.183Z,17.90
2022-09-02T03:26:37.790Z,18.00
2022-09-02T03:29:06.947Z,17.90
2022-09-02T03:31:35.821Z,17.90
2022-09-02T03:34:04.693Z,17.90
2022-09-02T03:36:36.761Z,17.90
2022-09-02T03:39:06.690Z,17.90
2022-09-02T03:41:43.517Z,17.90
2022-09-02T03:44:12.479Z,18.00
2022-09-02T03:46:42.401Z,17.90
2022-09-02T03:49:11.371Z,17.90
2022-09-02T03:51:41.084Z,17.90
2022-09-02T03:54:10.613Z,17.90
2022-09-02T03:56:40.090Z,17.90
2022-09-02T03:59:09.384Z,17.80
2022-09-02T04:01:37.600Z,17.90
2022-09-02T04:04:06.259Z,17.90
2022-09-02T04:06:36.104Z,17.80
2022-09-02T04:09:05.168Z,17.90
2022-09-02T04:11:34.852Z,17.90
2022-09-02T04:14:03.279Z,17.90
2022-09-02T04:16:36.958Z,17.90
2022-09-02T04:19:09.890Z,17.80
2022-09-02T04:21:42.449Z,17.80
2022-09-02T04:24:12.264Z,17.80
2022-09-02T04:26:45.227Z,17.90
2022-09-02T04:29:16.889Z,17.80
2022-09-02T04:31:48.923Z,17.80
2022-09-02T04:34:17.028Z,17.80
2022-09-02T04:36:46.701Z,17.80
2022-09-02T04:39:15.756Z,17.80
2022-09-02T04:41:44.452Z,17.80
2022-09-02T04:44:14.734Z,17.80
2022-09-02T04:46:47.301Z,17.80
2022-09-02T04:49:20.824Z,17.80
2022-09-02T04:51:55.014Z,17.80
2022-09-02T04:54:25.366Z,17.80
2022-09-02T04:56:55.860Z,17.80
2022-09-02T04:59:25.645Z,17.80
2022-09-02T05:02:06.072Z,17.80
2022-09-02T05:04:34.855Z,17.80
2022-09-02T05:07:04.494Z,17.80
2022-09-02T05:09:39.054Z,17.80
2022-09-02T05:12:10.129Z,17.80
2022-09-02T05:14:49.495Z,17.80
2022-09-02T05:17:20.989Z,17.90
2022-09-02T05:19:52.146Z,17.80
2022-09-02T05:22:20.358Z,17.90
2022-09-02T05:24:51.057Z,17.80
2022-09-02T05:27:20.769Z,17.80
2022-09-02T05:29:50.734Z,17.80
2022-09-02T05:32:21.120Z,17.80
2022-09-02T05:34:50.789Z,17.80
2022-09-02T05:37:18.783Z,17.90
2022-09-02T05:39:47.931Z,17.90
2022-09-02T05:42:19.922Z,17.80
2022-09-02T05:44:50.544Z,17.80
2022-09-02T05:47:21.435Z,17.80
2022-09-02T05:49:50.806Z,17.80
2022-09-02T05:52:19.008Z,17.80
2022-09-02T05:54:50.571Z,17.80
2022-09-02T05:57:22.631Z,17.70
2022-09-02T06:00:11.247Z,17.70
2022-09-02T06:02:53.901Z,17.80
2022-09-02T06:05:27.794Z,17.70
2022-09-02T06:08:05.681Z,17.80
2022-09-02T06:10:34.373Z,17.70
2022-09-02T06:13:02.806Z,17.70
2022-09-02T06:15:33.996Z,17.70
2022-09-02T06:18:04.612Z,17.70
2022-09-02T06:20:34.565Z,17.70
2022-09-02T06:23:04.511Z,17.80
2022-09-02T06:25:33.136Z,17.80
2022-09-02T06:28:06.835Z,17.80
2022-09-02T06:30:39.286Z,17.80
2022-09-02T06:33:07.662Z,17.80
2022-09-02T06:35:40.226Z,17.80
2022-09-02T06:38:11.529Z,17.80
2022-09-02T06:40:52.251Z,17.80
2022-09-02T06:43:26.545Z,17.80
2022-09-02T06:46:07.916Z,17.80
2022-09-02T06:48:37.915Z,17.80
2022-09-02T06:51:07.804Z,17.80
2022-09-02T06:53:36.242Z,17.90
2022-09-02T06:56:07.408Z,17.80
2022-09-02T06:58:35.557Z,17.90
2022-09-02T07:01:03.879Z,17.80
2022-09-02T07:03:52.681Z,17.80
2022-09-02T07:06:35.855Z,17.80
2022-09-02T07:09:07.529Z,17.80
2022-09-02T07:11:36.493Z,17.90
2022-09-02T07:14:05.021Z,17.80
2022-09-02T07:16:36.281Z,17.80
2022-09-02T07:19:05.644Z,17.80
2022-09-02T07:21:36.974Z,17.80
2022-09-02T07:24:05.459Z,17.80
2022-09-02T07:26:34.377Z,17.80
2022-09-02T07:29:05.169Z,17.80
2022-09-02T07:31:33.544Z,17.80
2022-09-02T07:34:02.182Z,17.80
2022-09-02T07:36:30.862Z,17.80
2022-09-02T07:38:59.908Z,17.80
2022-09-02T07:41:28.061Z,17.80
2022-09-02T07:43:59.616Z,17.80
2022-09-02T07:46:31.881Z,17.80
2022-09-02T07:49:00.670Z,17.80
2022-09-02T07:51:31.098Z,17.80
2022-09-02T07:54:02.403Z,17.80
2022-09-02T07:56:30.975Z,17.80
2022-09-02T07:58:59.107Z,17.80
2022-09-02T08:01:27.811Z,17.80
2022-09-02T08:03:59.403Z,17.80
2022-09-02T08:06:34.802Z,17.90
2022-09-02T08:09:19.510Z,17.90
2022-09-02T08:11:51.076Z,17.80
2022-09-02T08:14:25.217Z,17.90
2022-09-02T08:16:54.472Z,17.90
2022-09-02T08:19:26.655Z,17.90
2022-09-02T08:21:55.654Z,17.80
2022-09-02T08:24:23.652Z,17.90
2022-09-02T08:26:52.214Z,17.90
2022-09-02T08:29:20.486Z,17.90
2022-09-02T08:31:52.089Z,17.90
2022-09-02T08:34:23.025Z,17.90
2022-09-02T08:36:56.699Z,17.90
2022-09-02T08:39:26.294Z,17.90
2022-09-02T08:42:08.063Z,17.90
2022-09-02T08:44:38.465Z,18.00
2022-09-02T08:47:10.422Z,18.00
2022-09-02T08:49:44.522Z,18.00
2022-09-02T08:52:17.966Z,18.00
2022-09-02T08:54:53.938Z,18.00
2022-09-02T08:57:25.528Z,18.00
2022-09-02T08:59:58.835Z,18.10
2022-09-02T09:02:36.230Z,18.10
2022-09-02T09:05:23.624Z,18.00
2022-09-02T09:08:14.398Z,18.00
2022-09-02T09:10:58.349Z,17.90
2022-09-02T09:13:41.259Z,17.90
2022-09-02T09:16:11.081Z,17.90
2022-09-02T09:18:40.812Z,17.90
2022-09-02T09:21:10.478Z,18.00
2022-09-02T09:23:40.047Z,18.00
2022-09-02T09:26:09.367Z,17.90
2022-09-02T09:28:38.476Z,18.00
2022-09-02T09:31:07.379Z,17.90
2022-09-02T09:33:35.380Z,18.00
2022-09-02T09:36:05.881Z,18.00
2022-09-02T09:38:36.190Z,18.00
2022-09-02T09:41:24.997Z,18.00
2022-09-02T09:43:53.003Z,18.00
2022-09-02T09:46:30.284Z,17.90
2022-09-02T09:49:00.310Z,17.80
2022-09-02T09:51:28.359Z,17.70
2022-09-02T09:54:16.257Z,17.80
2022-09-02T09:56:44.934Z,17.80
2022-09-02T09:59:39.780Z,17.80
2022-09-02T10:02:21.526Z,17.80
2022-09-02T10:04:52.522Z,17.80
2022-09-02T10:07:36.853Z,17.90
2022-09-02T10:10:19.482Z,17.80
2022-09-02T10:12:48.880Z,17.90
2022-09-02T10:15:19.433Z,17.90
2022-09-02T10:17:50.575Z,17.90
2022-09-02T10:20:26.398Z,17.90
2022-09-02T10:23:13.302Z,17.90
2022-09-02T10:25:42.158Z,17.90
2022-09-02T10:28:30.578Z,17.90
2022-09-02T10:31:17.487Z,17.90
2022-09-02T10:34:05.559Z,17.90
2022-09-02T10:36:38.314Z,17.90
2022-09-02T10:39:20.897Z,17.90
2022-09-02T10:41:50.001Z,17.90
2022-09-02T10:44:30.600Z,17.90
2022-09-02T10:47:04.044Z,17.90
2022-09-02T10:49:41.362Z,17.90
2022-09-02T10:52:12.463Z,17.90
2022-09-02T10:54:59.420Z,17.80
2022-09-02T10:57:30.536Z,17.90
2022-09-02T11:00:01.682Z,17.90
2022-09-02T11:02:44.589Z,17.90
2022-09-02T11:05:18.080Z,17.90
2022-09-02T11:07:47.928Z,18.00
2022-09-02T11:10:50.560Z,17.90
2022-09-02T11:13:21.746Z,18.00
2022-09-02T11:16:08.679Z,18.00
2022-09-02T11:18:44.878Z,18.00
2022-09-02T11:21:31.669Z,17.90
2022-09-02T11:24:07.400Z,18.00
2022-09-02T11:27:08.716Z,17.90
2022-09-02T11:29:58.891Z,18.00
2022-09-02T11:32:31.962Z,18.00
2022-09-02T11:35:03.758Z,18.00
2022-09-02T11:37:47.938Z,18.10
2022-09-02T11:40:33.646Z,18.10
2022-09-02T11:43:08.564Z,18.20
2022-09-02T11:45:55.482Z,18.30
2022-09-02T11:48:23.648Z,18.40
2022-09-02T11:51:04.340Z,18.50
2022-09-02T11:53:36.145Z,18.50
2022-09-02T11:56:06.299Z,18.60
2022-09-02T11:58:36.115Z,18.60
2022-09-02T12:01:16.697Z,18.80
2022-09-02T12:04:34.527Z,19.00
2022-09-02T12:07:04.478Z,19.20
2022-09-02T12:12:32.167Z,19.80
2022-09-02T12:15:00.297Z,20.10
2022-09-02T12:17:40.674Z,20.40
2022-09-02T12:20:11.659Z,20.70
2022-09-02T12:22:40.867Z,21.00
2022-09-02T12:25:26.869Z,21.20
2022-09-02T12:28:18.954Z,21.30
2022-09-02T12:30:55.261Z,21.40
2022-09-02T12:33:30.909Z,21.60
2022-09-02T12:36:00.682Z,21.60
2022-09-02T12:38:36.833Z,21.70
2022-09-02T12:41:05.346Z,21.80
2022-09-02T12:43:35.916Z,21.90
2022-09-02T12:46:15.012Z,21.90
2022-09-02T12:48:49.880Z,22.10
2022-09-02T12:51:37.350Z,22.20
2022-09-02T12:54:09.347Z,22.30
2022-09-02T12:56:37.449Z,22.50
2022-09-02T12:59:08.789Z,22.60
2022-09-02T13:01:51.008Z,22.80
2022-09-02T13:04:30.999Z,23.00
2022-09-02T13:07:05.689Z,23.30
2022-09-02T13:09:33.658Z,23.30
2022-09-02T13:12:21.939Z,23.20
2022-09-02T13:14:54.647Z,23.20
2022-09-02T13:17:36.969Z,23.20
2022-09-02T13:20:08.478Z,23.20
2022-09-02T13:22:45.850Z,23.10
2022-09-02T13:25:34.159Z,23.10
2022-09-02T13:28:02.140Z,23.00
2022-09-02T13:30:30.083Z,23.00
2022-09-02T13:33:02.391Z,22.90
2022-09-02T13:35:31.221Z,22.90
2022-09-02T13:38:01.235Z,23.00
2022-09-02T13:40:33.786Z,23.00
2022-09-02T13:43:16.688Z,22.90
2022-09-02T13:45:45.679Z,22.90
2022-09-02T13:48:21.656Z,22.90
2022-09-02T13:50:51.168Z,22.90
2022-09-02T13:53:49.347Z,22.90
2022-09-02T13:56:17.855Z,22.90
2022-09-02T13:58:47.813Z,22.80
2022-09-02T14:01:30.257Z,22.60
2022-09-02T14:03:59.993Z,22.50
2022-09-02T14:06:34.235Z,22.40
2022-09-02T14:09:04.300Z,22.30
2022-09-02T14:11:43.263Z,22.10
2022-09-02T14:14:15.474Z,22.00
2022-09-02T14:16:45.402Z,21.90
2022-09-02T14:19:18.144Z,21.90
2022-09-02T14:21:47.898Z,22.00
2022-09-02T14:24:16.583Z,22.00
2022-09-02T14:26:46.231Z,21.90
2022-09-02T14:29:16.160Z,21.80
2022-09-02T14:31:44.840Z,21.70
2022-09-02T14:34:51.565Z,21.60
2022-09-02T14:37:21.410Z,21.60
2022-09-02T14:40:11.744Z,21.50
2022-09-02T14:42:52.626Z,21.50
2022-09-02T14:45:26.762Z,21.40
2022-09-02T14:47:56.987Z,21.40
2022-09-02T14:50:34.115Z,21.40
2022-09-02T14:53:06.574Z,21.30
2022-09-02T14:55:47.276Z,21.30
2022-09-02T14:58:17.112Z,21.30
2022-09-02T15:00:52.544Z,21.30
2022-09-02T15:03:23.797Z,21.30
2022-09-02T15:05:56.296Z,21.20
2022-09-02T15:08:27.408Z,21.20
2022-09-02T15:11:04.779Z,21.20
2022-09-02T15:13:51.014Z,21.30
2022-09-02T15:16:28.156Z,21.30
2022-09-02T15:19:02.101Z,21.40
2022-09-02T15:21:33.137Z,21.50
2022-09-02T15:24:11.485Z,21.60
2022-09-02T15:26:39.861Z,21.60
2022-09-02T15:29:09.143Z,21.60
2022-09-02T15:31:41.855Z,21.40
2022-09-02T15:34:16.246Z,21.20
2022-09-02T15:36:44.651Z,21.00
2022-09-02T15:39:16.442Z,20.90
2022-09-02T15:41:45.114Z,20.80
2022-09-02T15:44:14.182Z,20.70
2022-09-02T15:46:43.431Z,20.60
2022-09-02T15:49:13.073Z,20.50
2022-09-02T15:51:55.750Z,20.50
2022-09-02T15:54:26.771Z,20.40
2022-09-02T15:56:58.101Z,20.30
2022-09-02T15:59:27.871Z,20.30
2022-09-02T16:01:59.026Z,20.20
2022-09-02T16:04:31.522Z,20.20
2022-09-02T16:07:03.553Z,20.20
2022-09-02T16:09:35.029Z,20.10
2022-09-02T16:12:06.593Z,20.10
2022-09-02T16:14:34.869Z,20.10
2022-09-02T16:17:05.745Z,20.00
2022-09-02T16:19:47.769Z,20.00
2022-09-02T16:22:22.691Z,20.00
2022-09-02T16:24:54.728Z,19.90
2022-09-02T16:27:42.779Z,19.90
2022-09-02T16:30:14.230Z,19.90
2022-09-02T16:32:45.669Z,19.90
2022-09-02T16:35:15.608Z,19.90
2022-09-02T16:37:45.225Z,19.80
2022-09-02T16:40:24.894Z,19.70
2022-09-02T16:43:00.008Z,19.60
2022-09-02T16:45:29.164Z,19.60
2022-09-02T16:48:05.115Z,19.50
2022-09-02T16:50:33.162Z,19.40
2022-09-02T16:53:01.734Z,19.40
2022-09-02T16:55:31.263Z,19.30
2022-09-02T16:58:21.577Z,19.30
2022-09-02T17:00:50.242Z,19.20
2022-09-02T17:03:18.329Z,19.20
2022-09-02T17:05:52.369Z,19.10
2022-09-02T17:08:38.912Z,19.10
2022-09-02T17:11:24.727Z,19.10
2022-09-02T17:13:56.826Z,19.10
2022-09-02T17:16:35.072Z,19.00
2022-09-02T17:19:06.616Z,19.00
2022-09-02T17:21:41.011Z,19.10
2022-09-02T17:24:17.223Z,19.10
2022-09-02T17:26:47.131Z,19.10
2022-09-02T17:29:37.809Z,19.00
2022-09-02T17:32:10.090Z,19.00
2022-09-02T17:34:42.208Z,19.00
2022-09-02T17:37:13.719Z,19.00
2022-09-02T17:39:47.312Z,18.90
2022-09-02T17:42:22.772Z,18.90
2022-09-02T17:44:54.482Z,18.90
2022-09-02T17:47:23.653Z,18.80
2022-09-02T17:49:52.326Z,18.70
2022-09-02T17:52:26.536Z,18.70
2022-09-02T17:54:57.593Z,18.70
2022-09-02T17:57:43.167Z,18.60
2022-09-02T18:00:26.986Z,18.60
2022-09-02T18:03:17.016Z,18.60
2022-09-02T18:06:05.081Z,18.50
2022-09-02T18:08:52.137Z,18.50
2022-09-02T18:11:22.574Z,18.50
2022-09-02T18:13:55.596Z,18.50
2022-09-02T18:16:37.027Z,18.40
2022-09-02T18:19:14.017Z,18.40
2022-09-02T18:21:48.283Z,18.40
2022-09-02T18:24:35.643Z,18.30
2022-09-02T18:27:06.747Z,18.30
2022-09-02T18:29:53.642Z,18.30
2022-09-02T18:32:41.303Z,18.30
2022-09-02T18:35:09.365Z,18.30
2022-09-02T18:37:49.637Z,18.30
2022-09-02T18:40:29.926Z,18.30
2022-09-02T18:43:01.311Z,18.30
2022-09-02T18:45:36.781Z,18.30
2022-09-02T18:48:07.834Z,18.20
2022-09-02T18:50:50.833Z,18.20
2022-09-02T18:53:24.638Z,18.20
2022-09-02T18:55:54.275Z,18.20
2022-09-02T18:58:34.956Z,18.20
2022-09-02T19:01:10.424Z,18.20
2022-09-02T19:03:42.870Z,18.20
2022-09-02T19:06:17.064Z,18.10
2022-09-02T19:09:01.499Z,18.10
2022-09-02T19:11:32.708Z,18.00
2022-09-02T19:14:06.926Z,18.10
2022-09-02T19:16:38.918Z,18.10
2022-09-02T19:19:07.168Z,18.00
2022-09-02T19:21:47.628Z,18.00
2022-09-02T19:24:21.795Z,18.00
2022-09-02T19:26:58.128Z,17.90
2022-09-02T19:29:29.408Z,17.90
2022-09-02T19:31:57.477Z,17.90
2022-09-02T19:34:31.944Z,17.90
2022-09-02T19:37:03.497Z,17.80
2022-09-02T19:39:35.197Z,17.80
2022-09-02T19:42:03.325Z,17.80
2022-09-02T19:44:31.376Z,17.80
2022-09-02T19:49:54.426Z,17.80
2022-09-02T19:52:27.092Z,17.80
2022-09-02T19:55:00.861Z,17.70
2022-09-02T19:57:34.075Z,17.80
2022-09-02T20:00:02.566Z,17.80
2022-09-02T20:02:32.997Z,17.80
2022-09-02T20:05:05.406Z,17.80
2022-09-02T20:07:33.367Z,17.80
2022-09-02T20:10:01.651Z,17.80
2022-09-02T20:12:34.396Z,17.80
2022-09-02T20:15:06.239Z,17.80
2022-09-02T20:17:38.879Z,17.80
2022-09-02T20:20:19.142Z,17.80
2022-09-02T20:22:51.433Z,17.80
2022-09-02T20:25:20.928Z,17.80
2022-09-02T20:28:09.248Z,17.80
2022-09-02T20:30:38.604Z,17.80
2022-09-02T20:33:13.204Z,17.80
2022-09-02T20:35:50.356Z,17.80
2022-09-02T20:38:37.135Z,17.80
2022-09-02T20:41:34.325Z,17.80
2022-09-02T20:44:07.153Z,17.80
2022-09-02T20:46:41.063Z,17.80
2022-09-02T20:49:12.195Z,17.80
2022-09-02T20:51:46.822Z,17.80
2022-09-02T20:54:22.007Z,17.80
2022-09-02T20:57:11.252Z,17.80
2022-09-02T20:59:40.805Z,17.80
2022-09-02T21:02:13.878Z,17.90
2022-09-02T21:04:46.800Z,17.90
2022-09-02T21:07:25.482Z,17.90
2022-09-02T21:10:06.798Z,17.90
2022-09-02T21:12:37.389Z,17.90
2022-09-02T21:15:24.585Z,17.90
2022-09-02T21:18:04.156Z,17.90
2022-09-02T21:20:38.215Z,17.90
2022-09-02T21:23:10.933Z,17.90
2022-09-02T21:25:56.361Z,17.90
2022-09-02T21:28:46.354Z,17.90
2022-09-02T21:31:20.183Z,17.90
2022-09-02T21:33:49.367Z,18.00
2022-09-02T21:36:24.316Z,18.00
2022-09-02T21:38:54.063Z,17.90
2022-09-02T21:41:33.392Z,17.80
2022-09-02T21:44:19.757Z,17.80
2022-09-02T21:46:48.492Z,17.80
2022-09-02T21:49:38.656Z,17.70
2022-09-02T21:52:20.674Z,17.70
2022-09-02T21:55:07.535Z,17.60
2022-09-02T21:57:38.719Z,17.70
2022-09-02T22:00:10.836Z,17.60
2022-09-02T22:03:00.283Z,17.60
2022-09-02T22:05:37.657Z,17.60
2022-09-02T22:08:21.903Z,17.60
2022-09-02T22:11:09.452Z,17.50
2022-09-02T22:13:42.322Z,17.50
2022-09-02T22:16:13.792Z,17.50
2022-09-02T22:18:49.302Z,17.50
2022-09-02T22:21:22.618Z,17.40
2022-09-02T22:23:53.222Z,17.40
2022-09-02T22:26:30.519Z,17.40
2022-09-02T22:29:04.383Z,17.40
2022-09-02T22:31:38.985Z,17.30
2022-09-02T22:34:10.978Z,17.30
2022-09-02T22:36:43.571Z,17.30
2022-09-02T22:39:16.675Z,17.20
2022-09-02T22:41:55.904Z,17.20
2022-09-02T22:44:49.913Z,17.20
2022-09-02T22:47:43.473Z,17.20
2022-09-02T22:50:32.292Z,17.20
2022-09-02T22:53:00.350Z,17.20
2022-09-02T22:55:40.127Z,17.10
2022-09-02T22:58:08.103Z,17.10
2022-09-02T23:00:50.284Z,17.10
2022-09-02T23:03:21.747Z,17.10
2022-09-02T23:05:56.507Z,17.10
2022-09-02T23:08:24.636Z,17.10
2022-09-02T23:11:02.403Z,17.10
2022-09-02T23:13:52.844Z,17.10
2022-09-02T23:16:23.916Z,17.10
2022-09-02T23:27:09.999Z,17.00
2022-09-02T23:29:41.694Z,17.00
2022-09-02T23:32:23.876Z,16.90
2022-09-02T23:34:58.366Z,17.00
2022-09-02T23:37:46.741Z,16.90
2022-09-02T23:40:28.467Z,16.90
2022-09-02T23:42:59.711Z,16.90
2022-09-02T23:45:29.442Z,16.90
2022-09-02T23:48:05.357Z,16.90
2022-09-02T23:50:34.705Z,16.90
2022-09-02T23:53:29.262Z,16.90
2022-09-02T23:56:19.873Z,16.90
2022-09-02T23:58:57.840Z,16.80
